Time;durP1;ratioP1;P1;durP2;ratioP2;P2;SDS_P1;SDS_P2;PMS_P1;PMS_P2;Temp;Humidity;BMP_temperature;BMP_pressure;BME280_temperature;BME280_humidity;BME280_pressure;Samples;Min_cycle;Max_cycle;Signal;HPM_P1;HPM_P2
2022/12/20 00:01:14;;;;;;;14.20;9.90;;;1.70;99.90;;;;;;4953328;28;20201;-83
2022/12/20 00:03:41;;;;;;;12.90;8.63;;;1.70;99.90;;;;;;4953171;28;20259;-84
2022/12/20 00:06:09;;;;;;;11.53;8.70;;;1.70;99.90;;;;;;4951546;28;20269;-83
2022/12/20 00:08:45;;;;;;;12.37;8.20;;;1.60;99.90;;;;;;4949014;28;20205;-84
2022/12/20 00:11:12;;;;;;;11.53;8.00;;;1.70;99.90;;;;;;4955595;28;20218;-83
2022/12/20 00:13:40;;;;;;;12.83;8.57;;;1.70;99.90;;;;;;4952207;28;20201;-84
2022/12/20 00:16:10;;;;;;;15.03;8.60;;;1.80;99.90;;;;;;4938030;29;20213;-84
2022/12/20 00:18:39;;;;;;;11.83;7.90;;;1.80;99.90;;;;;;4953356;28;20229;-84
2022/12/20 00:21:08;;;;;;;9.57;7.33;;;1.80;99.90;;;;;;4952490;28;20213;-84
2022/12/20 00:23:36;;;;;;;11.40;7.70;;;1.90;99.90;;;;;;4952833;28;20312;-83
2022/12/20 00:26:05;;;;;;;12.70;7.93;;;1.90;99.90;;;;;;4949701;28;20296;-84
2022/12/20 00:28:33;;;;;;;11.00;7.40;;;1.90;99.90;;;;;;4951038;28;20296;-84
2022/12/20 00:31:01;;;;;;;11.13;7.50;;;1.90;99.90;;;;;;4955414;28;20207;-85
2022/12/20 00:33:29;;;;;;;9.47;7.10;;;2.00;99.90;;;;;;4952586;28;20210;-83
2022/12/20 00:35:57;;;;;;;10.83;7.27;;;2.10;99.90;;;;;;4952995;28;20217;-84
2022/12/20 00:38:24;;;;;;;11.53;7.00;;;2.10;99.90;;;;;;4953233;28;20230;-84
2022/12/20 00:41:00;;;;;;;12.43;6.90;;;2.10;99.90;;;;;;4954607;28;20209;-83
2022/12/20 00:43:27;;;;;;;9.47;6.97;;;2.20;99.90;;;;;;4953222;28;20220;-84
2022/12/20 00:45:54;;;;;;;9.73;6.73;;;2.10;99.90;;;;;;4953532;28;20205;-85
2022/12/20 00:48:21;;;;;;;10.30;6.67;;;2.00;99.90;;;;;;4952277;28;20257;-84
2022/12/20 00:50:52;;;;;;;9.10;5.87;;;2.00;99.90;;;;;;4956878;28;20284;-83
2022/12/20 00:53:19;;;;;;;8.50;6.20;;;2.00;99.90;;;;;;4952900;28;20704;-84
2022/12/20 00:55:47;;;;;;;7.83;5.13;;;2.10;99.90;;;;;;4952750;28;20304;-84
2022/12/20 00:58:14;;;;;;;8.53;5.87;;;2.10;99.90;;;;;;4951889;28;20233;-84
2022/12/20 01:00:41;;;;;;;9.40;6.37;;;2.10;99.90;;;;;;4953674;28;20204;-84
2022/12/20 01:03:15;;;;;;;9.17;6.23;;;2.10;99.90;;;;;;4949677;28;20220;-84
2022/12/20 01:05:52;;;;;;;8.43;6.00;;;2.00;99.90;;;;;;4949937;28;20295;-84
2022/12/20 01:08:20;;;;;;;8.27;6.03;;;2.00;99.90;;;;;;4950025;28;20213;-84
2022/12/20 01:10:58;;;;;;;9.50;5.30;;;2.00;99.90;;;;;;4955890;28;20219;-84
2022/12/20 01:13:26;;;;;;;7.43;5.03;;;2.00;99.90;;;;;;4950116;28;20436;-84
2022/12/20 01:15:53;;;;;;;7.20;5.00;;;2.10;99.90;;;;;;4952437;28;20333;-84
2022/12/20 01:18:20;;;;;;;6.10;4.90;;;2.20;99.90;;;;;;4951629;28;20229;-84
2022/12/20 01:20:47;;;;;;;6.30;4.20;;;2.20;99.90;;;;;;4953162;28;20210;-84
2022/12/20 01:23:15;;;;;;;5.73;3.60;;;2.30;99.90;;;;;;4953343;28;20660;-84
2022/12/20 01:25:42;;;;;;;5.63;4.03;;;2.30;99.90;;;;;;4953415;28;20218;-84
2022/12/20 01:28:09;;;;;;;5.43;4.13;;;2.40;99.90;;;;;;4947541;28;20713;-84
2022/12/20 01:30:40;;;;;;;6.00;4.07;;;2.30;99.90;;;;;;4952691;28;20217;-84
2022/12/20 01:33:07;;;;;;;7.53;4.40;;;2.30;99.90;;;;;;4952615;28;20205;-84
2022/12/20 01:35:34;;;;;;;5.07;3.47;;;2.20;99.90;;;;;;4949424;28;20217;-84
2022/12/20 01:38:01;;;;;;;5.10;3.83;;;2.20;99.90;;;;;;4951492;28;20235;-84
2022/12/20 01:40:29;;;;;;;4.97;3.73;;;2.20;99.90;;;;;;4948919;28;20244;-84
2022/12/20 01:42:56;;;;;;;4.37;3.40;;;2.30;99.90;;;;;;4952974;28;20271;-83
2022/12/20 01:45:28;;;;;;;4.93;3.57;;;2.40;99.90;;;;;;4944412;28;20288;-84
2022/12/20 01:47:56;;;;;;;4.30;3.40;;;2.40;99.90;;;;;;4943452;28;20211;-84
2022/12/20 01:50:24;;;;;;;6.07;3.83;;;2.30;99.90;;;;;;4949603;28;20209;-83
2022/12/20 01:52:52;;;;;;;3.90;3.13;;;2.30;99.90;;;;;;4952424;28;20219;-84
2022/12/20 01:55:24;;;;;;;5.20;3.30;;;2.20;99.90;;;;;;4951702;28;20237;-84
2022/12/20 01:57:57;;;;;;;3.80;3.40;;;2.10;99.90;;;;;;4952190;28;20592;-84
2022/12/20 02:00:24;;;;;;;5.13;3.27;;;2.10;99.90;;;;;;4951909;28;20691;-83
2022/12/20 02:02:52;;;;;;;4.20;3.37;;;2.10;99.90;;;;;;4949374;28;20205;-84
2022/12/20 02:05:27;;;;;;;3.27;2.87;;;2.10;99.90;;;;;;4953908;28;20727;-83
2022/12/20 02:07:56;;;;;;;3.50;2.80;;;2.20;99.90;;;;;;4953954;28;20208;-84
2022/12/20 02:10:29;;;;;;;4.40;2.80;;;2.30;99.90;;;;;;4952309;28;20267;-83
2022/12/20 02:13:05;;;;;;;3.67;2.90;;;2.40;99.90;;;;;;4949733;28;20205;-83
2022/12/20 02:15:41;;;;;;;3.33;2.70;;;2.40;99.90;;;;;;4951624;28;20613;-83
2022/12/20 02:18:17;;;;;;;4.10;2.60;;;2.40;99.90;;;;;;4951734;28;20275;-83
2022/12/20 02:21:08;;;;;;;3.70;2.77;;;2.40;99.90;;;;;;4951591;28;20677;-84
2022/12/20 02:24:16;;;;;;;4.43;2.93;;;2.50;99.90;;;;;;4953910;28;20320;-83
2022/12/20 02:27:17;;;;;;;3.93;2.70;;;2.50;99.90;;;;;;4962011;28;20213;-83
2022/12/20 02:30:01;;;;;;;3.70;2.60;;;2.50;99.90;;;;;;4950389;28;20221;-83
2022/12/20 02:32:33;;;;;;;4.30;2.77;;;2.40;99.90;;;;;;4952764;28;20301;-84
2022/12/20 02:35:04;;;;;;;3.17;2.50;;;2.40;99.90;;;;;;4951383;28;20211;-84
2022/12/20 02:37:31;;;;;;;2.90;2.40;;;2.30;99.90;;;;;;4953571;28;20285;-83
2022/12/20 02:39:58;;;;;;;4.73;2.93;;;2.30;99.90;;;;;;4952553;28;20212;-83
2022/12/20 02:42:28;;;;;;;2.93;2.40;;;2.20;99.90;;;;;;4953807;28;20209;-83
2022/12/20 02:45:15;;;;;;;2.87;2.50;;;2.30;99.90;;;;;;4950724;28;20220;-83
2022/12/20 02:47:48;;;;;;;3.43;2.53;;;2.40;99.90;;;;;;4951028;28;20205;-83
2022/12/20 02:50:20;;;;;;;3.00;2.50;;;2.40;99.90;;;;;;4951080;28;20300;-82
2022/12/20 02:52:48;;;;;;;3.07;2.50;;;2.40;99.90;;;;;;4947246;28;20209;-83
2022/12/20 02:55:15;;;;;;;3.23;2.23;;;2.50;99.90;;;;;;4953253;28;20704;-83
2022/12/20 02:57:48;;;;;;;2.40;2.20;;;2.50;99.90;;;;;;4949241;28;20205;-83
2022/12/20 03:00:19;;;;;;;3.43;2.57;;;2.50;99.90;;;;;;4945534;28;20219;-83
2022/12/20 03:05:35;;;;;;;2.83;2.27;;;2.50;99.90;;;;;;4950425;28;20211;-83
2022/12/20 03:08:03;;;;;;;2.53;2.10;;;2.50;99.90;;;;;;4952086;28;20235;-83
2022/12/20 03:10:30;;;;;;;2.97;2.30;;;2.30;99.90;;;;;;4950786;28;20323;-83
2022/12/20 03:12:57;;;;;;;3.27;2.20;;;2.30;99.90;;;;;;4954486;28;20569;-83
2022/12/20 03:15:25;;;;;;;3.03;2.43;;;2.40;99.90;;;;;;4951464;28;20235;-83
2022/12/20 03:17:52;;;;;;;2.23;2.03;;;2.40;99.90;;;;;;4949670;28;20288;-83
2022/12/20 03:20:19;;;;;;;3.20;2.13;;;2.40;99.90;;;;;;4949614;28;20206;-83
2022/12/20 03:22:46;;;;;;;3.23;2.50;;;2.40;99.90;;;;;;4947039;28;20569;-83
2022/12/20 03:25:15;;;;;;;3.27;2.10;;;2.30;99.90;;;;;;4947663;28;20297;-83
2022/12/20 03:27:42;;;;;;;2.77;2.27;;;2.30;99.90;;;;;;4953697;28;20296;-83
2022/12/20 03:30:09;;;;;;;2.43;2.13;;;2.40;99.90;;;;;;4956585;28;20328;-83
2022/12/20 03:32:40;;;;;;;2.80;2.37;;;2.50;99.90;;;;;;4953485;28;20205;-85
2022/12/20 03:35:08;;;;;;;3.20;2.07;;;2.50;99.90;;;;;;4954753;28;20206;-82
2022/12/20 03:37:35;;;;;;;3.17;2.20;;;2.50;99.90;;;;;;4953374;28;20223;-83
2022/12/20 03:40:02;;;;;;;2.53;2.20;;;2.60;99.90;;;;;;4951792;28;20225;-83
2022/12/20 03:42:29;;;;;;;2.83;2.37;;;2.70;99.90;;;;;;4954139;28;20258;-83
2022/12/20 03:44:55;;;;;;;2.03;1.80;;;2.70;99.90;;;;;;4955081;28;20291;-82
2022/12/20 03:47:22;;;;;;;2.80;2.37;;;2.70;99.90;;;;;;4953901;28;20283;-84
2022/12/20 03:49:51;;;;;;;2.47;2.20;;;2.60;99.90;;;;;;4953086;28;20299;-83
2022/12/20 03:52:18;;;;;;;3.30;2.00;;;2.50;99.90;;;;;;4954265;28;21263;-85
2022/12/20 03:54:44;;;;;;;2.43;1.87;;;2.60;99.90;;;;;;4955123;28;20296;-85
2022/12/20 03:57:15;;;;;;;2.30;2.00;;;2.60;99.90;;;;;;4955356;28;20302;-84
2022/12/20 03:59:42;;;;;;;2.23;2.03;;;2.60;99.90;;;;;;4958981;28;20263;-82
2022/12/20 04:02:09;;;;;;;3.47;2.27;;;2.60;99.90;;;;;;4950945;28;20247;-82
2022/12/20 04:04:36;;;;;;;2.53;2.13;;;2.60;99.90;;;;;;4954840;28;20319;-83
2022/12/20 04:07:04;;;;;;;3.40;2.20;;;2.50;99.90;;;;;;4953943;28;20212;-85
2022/12/20 04:09:31;;;;;;;2.93;2.40;;;2.40;99.90;;;;;;4953555;28;20217;-85
2022/12/20 04:11:58;;;;;;;2.50;2.00;;;2.30;99.90;;;;;;4954471;28;20205;-84
2022/12/20 04:14:25;;;;;;;4.00;2.37;;;2.30;99.90;;;;;;4953672;28;20208;-85
2022/12/20 04:16:52;;;;;;;2.67;2.10;;;2.30;99.90;;;;;;4954438;28;20655;-84
2022/12/20 04:19:19;;;;;;;2.30;2.03;;;2.30;99.90;;;;;;4952845;28;20316;-85
2022/12/20 04:21:46;;;;;;;2.87;2.57;;;2.30;99.90;;;;;;4953410;28;20219;-82
2022/12/20 04:24:14;;;;;;;3.10;2.10;;;2.30;99.90;;;;;;4953103;28;20237;-83
2022/12/20 04:26:41;;;;;;;2.43;1.83;;;2.20;99.90;;;;;;4953904;28;20577;-84
2022/12/20 04:29:08;;;;;;;3.40;2.50;;;2.30;99.90;;;;;;4954591;28;20332;-84
2022/12/20 04:31:35;;;;;;;4.50;2.50;;;2.40;99.90;;;;;;4952160;28;20209;-85
2022/12/20 04:34:02;;;;;;;5.13;2.83;;;2.50;99.90;;;;;;4948703;28;20205;-85
2022/12/20 04:36:29;;;;;;;4.30;3.00;;;2.50;99.90;;;;;;4955783;28;20301;-85
2022/12/20 04:38:56;;;;;;;4.10;3.00;;;2.50;99.90;;;;;;4953076;28;20316;-85
2022/12/20 04:41:28;;;;;;;4.47;2.97;;;2.50;99.90;;;;;;4952418;28;20584;-85
2022/12/20 04:43:58;;;;;;;3.43;2.70;;;2.50;99.90;;;;;;4953070;28;20213;-85
2022/12/20 04:46:26;;;;;;;3.37;2.70;;;2.50;99.90;;;;;;4951528;28;20205;-85
2022/12/20 04:48:53;;;;;;;4.63;2.60;;;2.40;99.90;;;;;;4951090;28;20260;-85
2022/12/20 04:51:21;;;;;;;3.07;2.47;;;2.40;99.90;;;;;;4953035;28;20235;-85
2022/12/20 04:53:47;;;;;;;3.07;2.30;;;2.40;99.90;;;;;;4952550;28;20209;-84
2022/12/20 04:56:19;;;;;;;2.53;2.00;;;2.50;99.90;;;;;;4954503;28;20329;-85
2022/12/20 04:58:48;;;;;;;2.70;2.30;;;2.50;99.90;;;;;;4952002;28;20251;-84
2022/12/20 05:01:16;;;;;;;2.53;2.20;;;2.50;99.90;;;;;;4952462;28;20201;-84
2022/12/20 05:03:46;;;;;;;3.87;2.10;;;2.50;99.90;;;;;;4950764;28;20216;-85
2022/12/20 05:06:13;;;;;;;4.33;2.33;;;2.60;99.90;;;;;;4954016;28;20642;-84
2022/12/20 05:08:40;;;;;;;3.00;2.10;;;2.70;99.90;;;;;;4953002;28;20288;-84
2022/12/20 05:11:07;;;;;;;2.53;2.33;;;2.70;99.90;;;;;;4951732;28;20688;-85
2022/12/20 05:13:34;;;;;;;6.33;2.40;;;2.60;99.90;;;;;;4951867;28;20309;-84
2022/12/20 05:16:03;;;;;;;2.60;2.40;;;2.60;99.90;;;;;;4953386;28;20213;-85
2022/12/20 05:18:31;;;;;;;3.47;2.20;;;2.50;99.90;;;;;;4950809;28;20212;-84
2022/12/20 05:26:31;;;;;;;3.33;2.17;;;2.70;99.90;;;;;;4954216;28;20297;-85
2022/12/20 05:28:58;;;;;;;2.73;1.80;;;2.80;99.90;;;;;;4949507;28;20220;-85
2022/12/20 05:31:28;;;;;;;3.20;2.17;;;2.80;99.90;;;;;;4949556;28;20296;-85
2022/12/20 05:33:55;;;;;;;3.03;2.23;;;2.70;99.90;;;;;;4955957;28;20280;-85
2022/12/20 05:36:27;;;;;;;2.23;1.90;;;2.70;99.90;;;;;;4955302;28;20637;-85
2022/12/20 05:38:54;;;;;;;2.60;2.07;;;2.60;99.90;;;;;;4952862;28;20317;-85
2022/12/20 05:41:30;;;;;;;4.53;3.20;;;2.60;99.90;;;;;;4953775;28;20209;-85
2022/12/20 05:43:57;;;;;;;3.90;2.60;;;2.60;99.90;;;;;;4953370;28;20217;-85
2022/12/20 05:46:24;;;;;;;3.50;2.60;;;2.70;99.90;;;;;;4953008;28;20252;-85
2022/12/20 05:48:53;;;;;;;5.00;3.40;;;2.80;99.90;;;;;;4948730;28;20308;-84
2022/12/20 05:51:20;;;;;;;5.63;3.43;;;2.80;99.90;;;;;;4952507;28;20297;-84
2022/12/20 05:53:46;;;;;;;5.43;3.53;;;2.90;99.90;;;;;;4953384;28;20269;-84
2022/12/20 05:56:13;;;;;;;7.17;4.33;;;2.90;99.90;;;;;;4952456;28;20233;-85
2022/12/20 05:58:40;;;;;;;6.17;4.07;;;2.90;99.90;;;;;;4950509;28;20219;-84
2022/12/20 06:01:10;;;;;;;5.87;3.60;;;2.80;99.90;;;;;;4948290;28;20197;-83
2022/12/20 06:03:37;;;;;;;6.27;3.37;;;2.80;99.90;;;;;;4952664;28;20571;-83
2022/12/20 06:06:07;;;;;;;4.77;2.93;;;2.80;99.90;;;;;;4953203;28;20209;-83
2022/12/20 06:08:34;;;;;;;3.93;2.77;;;2.70;99.90;;;;;;4951653;28;20221;-85
2022/12/20 06:11:03;;;;;;;5.67;3.37;;;2.60;99.90;;;;;;4949268;28;20300;-86
2022/12/20 06:13:30;;;;;;;4.13;2.80;;;2.60;99.90;;;;;;4933685;29;20224;-85
2022/12/20 06:15:59;;;;;;;6.27;2.40;;;2.50;99.90;;;;;;4952167;28;20197;-86
2022/12/20 06:18:26;;;;;;;7.80;2.70;;;2.50;99.90;;;;;;4950995;28;20220;-82
2022/12/20 06:20:54;;;;;;;3.97;2.90;;;2.60;99.90;;;;;;4951694;28;20227;-86
2022/12/20 06:23:22;;;;;;;4.67;2.60;;;2.50;99.90;;;;;;4951127;28;20234;-86
2022/12/20 06:25:49;;;;;;;3.73;2.67;;;2.60;99.90;;;;;;4950323;28;20214;-83
2022/12/20 06:28:20;;;;;;;4.67;2.40;;;2.60;99.90;;;;;;4950356;28;20670;-86
2022/12/20 06:30:52;;;;;;;2.87;2.33;;;2.60;99.90;;;;;;4952245;28;20225;-85
2022/12/20 06:33:19;;;;;;;3.07;2.13;;;2.60;99.90;;;;;;4954387;28;20305;-84
2022/12/20 06:35:46;;;;;;;2.50;2.10;;;2.60;99.90;;;;;;4951745;28;20256;-84
2022/12/20 06:38:13;;;;;;;3.87;2.47;;;2.60;99.90;;;;;;4950264;28;20215;-84
2022/12/20 06:40:42;;;;;;;4.07;2.53;;;2.70;99.90;;;;;;4950403;28;20308;-84
2022/12/20 06:43:08;;;;;;;3.50;2.10;;;2.80;99.90;;;;;;4951427;28;20674;-84
2022/12/20 06:45:35;;;;;;;4.77;2.40;;;2.80;99.90;;;;;;4952030;28;20206;-83
2022/12/20 06:48:02;;;;;;;4.27;2.50;;;2.80;99.90;;;;;;4951917;28;20213;-83
2022/12/20 06:50:33;;;;;;;2.90;1.90;;;2.80;99.90;;;;;;4951476;28;20222;-84
2022/12/20 06:53:00;;;;;;;6.00;2.30;;;2.90;99.90;;;;;;4952472;28;20288;-84
2022/12/20 06:55:27;;;;;;;2.57;2.00;;;3.00;99.90;;;;;;4951116;28;20205;-84
2022/12/20 06:57:55;;;;;;;4.43;2.40;;;3.10;99.90;;;;;;4951465;28;20300;-84
2022/12/20 07:00:23;;;;;;;5.33;2.47;;;3.10;99.90;;;;;;4956351;28;20668;-84
2022/12/20 07:02:50;;;;;;;5.13;2.60;;;3.00;99.90;;;;;;4954766;28;20243;-85
2022/12/20 07:05:17;;;;;;;5.10;2.63;;;2.90;99.90;;;;;;4957054;28;20285;-84
2022/12/20 07:07:44;;;;;;;4.20;2.47;;;2.90;99.90;;;;;;4955863;28;20295;-84
2022/12/20 07:10:11;;;;;;;4.37;2.67;;;2.80;99.90;;;;;;4957664;28;20546;-84
2022/12/20 07:12:38;;;;;;;4.27;2.80;;;2.80;99.90;;;;;;4958079;28;20205;-84
2022/12/20 07:15:12;;;;;;;5.27;2.67;;;2.80;99.90;;;;;;4956851;28;20204;-86
2022/12/20 07:17:39;;;;;;;3.33;2.30;;;2.80;99.90;;;;;;4953451;28;20319;-87
2022/12/20 07:20:07;;;;;;;5.00;3.03;;;2.90;99.90;;;;;;4953097;28;20312;-86
2022/12/20 07:22:34;;;;;;;4.50;2.80;;;3.00;99.90;;;;;;4955357;28;20304;-86
2022/12/20 07:25:15;;;;;;;4.23;2.43;;;3.10;99.90;;;;;;4954540;28;20308;-87
2022/12/20 07:27:42;;;;;;;5.43;3.60;;;3.20;99.90;;;;;;4953448;28;20209;-89
2022/12/20 07:30:11;;;;;;;5.03;3.30;;;3.20;99.90;;;;;;4954600;28;20304;-84
2022/12/20 07:32:38;;;;;;;4.57;3.03;;;3.10;99.90;;;;;;4956283;28;20312;-86
2022/12/20 07:35:10;;;;;;;5.43;3.20;;;3.00;99.90;;;;;;4956465;28;20292;-86
2022/12/20 07:37:37;;;;;;;5.30;2.60;;;3.10;99.90;;;;;;4957318;28;20205;-87
2022/12/20 07:40:06;;;;;;;4.17;2.87;;;3.10;99.90;;;;;;4955784;28;20225;-85
2022/12/20 07:42:33;;;;;;;6.87;3.20;;;3.20;99.90;;;;;;4955749;28;20207;-84
2022/12/20 07:45:00;;;;;;;7.50;3.60;;;3.20;99.90;;;;;;4958151;28;20205;-85
2022/12/20 07:47:29;;;;;;;3.00;2.70;;;3.20;99.90;;;;;;4954678;28;20299;-85
2022/12/20 07:49:56;;;;;;;4.27;2.87;;;3.20;99.90;;;;;;4956238;28;20644;-85
2022/12/20 07:52:26;;;;;;;7.87;2.77;;;3.30;99.90;;;;;;4958158;28;20296;-85
2022/12/20 07:54:58;;;;;;;3.73;2.73;;;3.40;99.90;;;;;;4956567;28;20201;-85
2022/12/20 07:57:31;;;;;;;5.07;3.27;;;3.80;99.90;;;;;;4954207;28;20291;-85
2022/12/20 08:00:00;;;;;;;8.00;3.63;;;3.70;99.90;;;;;;4956667;28;20312;-85
2022/12/20 08:02:34;;;;;;;4.00;2.80;;;3.70;99.90;;;;;;4952134;28;20212;-84
2022/12/20 08:05:03;;;;;;;5.63;3.60;;;3.70;99.90;;;;;;4951068;28;20587;-85
2022/12/20 08:07:30;;;;;;;5.93;3.70;;;3.70;99.90;;;;;;4955930;28;20299;-85
2022/12/20 08:09:58;;;;;;;6.10;3.63;;;3.80;99.90;;;;;;4955696;28;20311;-86
2022/12/20 08:12:26;;;;;;;5.00;3.13;;;3.70;99.90;;;;;;4949894;28;20201;-85
2022/12/20 08:14:55;;;;;;;6.53;3.27;;;3.80;99.90;;;;;;4955156;28;20582;-86
2022/12/20 08:17:28;;;;;;;5.67;3.17;;;3.90;99.90;;;;;;4953298;28;20299;-86
2022/12/20 08:19:56;;;;;;;6.10;3.60;;;4.00;99.90;;;;;;4951863;28;20225;-84
2022/12/20 08:22:23;;;;;;;5.07;3.13;;;4.30;99.90;;;;;;4954911;28;20656;-85
2022/12/20 08:24:50;;;;;;;3.90;2.60;;;4.80;99.50;;;;;;4952571;28;20291;-86
2022/12/20 08:27:17;;;;;;;3.70;2.63;;;5.00;98.40;;;;;;4954311;28;20300;-84
2022/12/20 08:29:44;;;;;;;5.97;4.00;;;5.30;97.40;;;;;;4949670;28;20580;-86
2022/12/20 08:32:13;;;;;;;8.97;3.33;;;5.20;96.40;;;;;;4948311;28;20239;-86
2022/12/20 08:34:41;;;;;;;3.97;2.90;;;4.90;96.80;;;;;;4954187;28;20202;-85
2022/12/20 08:37:08;;;;;;;10.20;3.87;;;4.90;97.70;;;;;;4951580;28;20201;-86
2022/12/20 08:39:36;;;;;;;8.30;3.17;;;5.00;97.20;;;;;;4953452;28;20233;-86
2022/12/20 08:42:04;;;;;;;6.43;3.70;;;5.10;97.30;;;;;;4951643;28;20209;-86
2022/12/20 08:44:39;;;;;;;8.97;3.50;;;5.10;97.30;;;;;;4952024;28;20581;-87
2022/12/20 08:47:06;;;;;;;9.63;3.90;;;4.90;97.20;;;;;;4951699;28;20296;-86
2022/12/20 08:49:33;;;;;;;8.48;3.90;;;4.80;97.70;;;;;;4948658;28;20209;-86
2022/12/20 08:52:01;;;;;;;7.43;4.00;;;4.80;98.10;;;;;;4954378;28;20216;-86
2022/12/20 08:54:28;;;;;;;12.50;4.45;;;4.70;98.40;;;;;;4955899;28;20205;-86
2022/12/20 08:56:55;;;;;;;6.88;3.80;;;4.80;98.20;;;;;;4953549;28;20328;-87
2022/12/20 08:59:22;;;;;;;7.05;3.70;;;4.80;98.30;;;;;;4952579;28;20313;-85
2022/12/20 09:01:49;;;;;;;11.25;4.45;;;4.90;98.60;;;;;;4952357;28;20209;-86
2022/12/20 09:04:21;;;;;;;10.63;3.90;;;5.00;98.00;;;;;;4952914;28;20213;-84
2022/12/20 09:06:48;;;;;;;7.65;4.13;;;5.10;98.10;;;;;;4951297;28;20220;-86
2022/12/20 09:09:17;;;;;;;6.22;3.70;;;5.10;98.10;;;;;;4953658;28;20201;-86
2022/12/20 09:11:44;;;;;;;10.10;4.15;;;5.20;97.90;;;;;;4950453;28;20217;-86
2022/12/20 09:14:16;;;;;;;6.03;3.40;;;5.20;97.70;;;;;;4953626;28;20288;-86
2022/12/20 09:16:42;;;;;;;5.90;3.70;;;5.40;97.80;;;;;;4951533;28;20572;-87
2022/12/20 09:19:15;;;;;;;6.82;3.17;;;5.40;97.10;;;;;;4954005;28;20300;-84
2022/12/20 09:21:42;;;;;;;8.98;3.10;;;5.50;97.30;;;;;;4950979;28;20231;-90
2022/12/20 09:24:11;;;;;;;6.30;3.50;;;5.80;97.00;;;;;;4950913;28;20325;-85
2022/12/20 09:26:40;;;;;;;6.20;3.45;;;5.80;96.80;;;;;;4952811;28;20705;-84
2022/12/20 09:29:07;;;;;;;5.97;3.47;;;5.80;96.70;;;;;;4954168;28;20744;-84
2022/12/20 09:31:35;;;;;;;7.25;3.67;;;6.00;96.60;;;;;;4952141;28;20653;-90
2022/12/20 09:34:02;;;;;;;7.80;3.88;;;6.10;96.40;;;;;;4953956;28;20202;-88
2022/12/20 09:36:30;;;;;;;6.25;3.53;;;6.20;96.20;;;;;;4954301;28;20304;-85
2022/12/20 09:38:57;;;;;;;5.68;3.60;;;6.20;96.00;;;;;;4953187;28;20212;-85
2022/12/20 09:41:31;;;;;;;8.63;3.72;;;6.20;96.10;;;;;;4952788;28;20231;-85
2022/12/20 09:44:03;;;;;;;6.45;3.95;;;6.30;96.00;;;;;;4953629;28;20221;-85
2022/12/20 09:46:32;;;;;;;5.60;4.00;;;6.40;95.60;;;;;;4965050;28;20984;-86
2022/12/20 09:48:58;;;;;;;6.25;3.97;;;6.60;95.40;;;;;;4969030;28;20209;-85
2022/12/20 09:51:43;;;;;;;6.35;3.67;;;6.60;95.40;;;;;;4975049;28;20210;-84
2022/12/20 09:54:19;;;;;;;8.13;3.88;;;6.70;95.10;;;;;;4967359;28;20368;-85
2022/12/20 09:56:56;;;;;;;5.28;3.70;;;6.80;95.10;;;;;;4958226;28;20295;-83
2022/12/20 09:59:25;;;;;;;8.00;3.83;;;6.80;95.00;;;;;;4953154;28;20208;-84
2022/12/20 10:01:52;;;;;;;5.72;3.75;;;6.90;94.90;;;;;;4952887;28;20231;-84
2022/12/20 10:04:22;;;;;;;6.15;3.75;;;7.00;94.90;;;;;;4950632;28;20200;-85
2022/12/20 10:07:06;;;;;;;5.07;4.00;;;7.00;94.30;;;;;;4951769;28;20197;-86
2022/12/20 10:09:57;;;;;;;5.97;3.83;;;7.00;94.50;;;;;;4951875;28;20329;-84
2022/12/20 10:12:31;;;;;;;5.28;3.83;;;7.10;94.50;;;;;;4948821;28;20211;-86
2022/12/20 10:15:17;;;;;;;4.60;3.45;;;7.10;94.30;;;;;;4950423;28;20208;-86
2022/12/20 10:18:02;;;;;;;7.05;3.45;;;7.20;94.20;;;;;;4948511;28;20654;-88
2022/12/20 10:20:45;;;;;;;6.90;2.88;;;7.40;93.80;;;;;;4947801;28;20235;-86
2022/12/20 10:23:16;;;;;;;4.50;3.47;;;7.50;93.10;;;;;;4948239;28;20221;-85
2022/12/20 10:25:44;;;;;;;4.05;3.05;;;7.70;93.00;;;;;;4950553;28;20301;-84
2022/12/20 10:28:14;;;;;;;4.63;3.50;;;7.60;92.70;;;;;;4949526;28;20217;-84
2022/12/20 10:30:42;;;;;;;6.97;4.25;;;7.60;93.30;;;;;;4946081;28;20237;-85
2022/12/20 10:33:22;;;;;;;5.13;3.50;;;7.80;92.50;;;;;;4948094;28;20681;-84
2022/12/20 10:35:51;;;;;;;8.02;3.70;;;8.00;92.50;;;;;;4950900;28;20287;-83
2022/12/20 10:38:19;;;;;;;4.47;3.30;;;8.10;92.00;;;;;;4949111;28;20209;-85
2022/12/20 10:40:47;;;;;;;5.07;2.70;;;8.30;91.70;;;;;;4953635;28;20256;-84
2022/12/20 10:43:18;;;;;;;3.92;2.97;;;8.30;91.30;;;;;;4950440;28;20296;-85
2022/12/20 10:45:56;;;;;;;5.93;3.25;;;8.50;91.10;;;;;;4951863;28;20220;-84
2022/12/20 10:48:29;;;;;;;4.22;3.05;;;8.60;91.00;;;;;;4947880;28;20205;-84
2022/12/20 10:50:58;;;;;;;5.13;3.17;;;8.60;90.70;;;;;;4950272;28;20209;-87
2022/12/20 10:53:28;;;;;;;6.85;3.30;;;8.60;90.40;;;;;;4952515;28;20220;-86
2022/12/20 10:56:11;;;;;;;3.95;2.95;;;8.70;90.40;;;;;;4951129;28;20205;-86
2022/12/20 10:58:39;;;;;;;8.27;3.75;;;8.60;90.70;;;;;;4949184;28;20212;-84
2022/12/20 11:01:14;;;;;;;5.28;2.90;;;8.50;90.80;;;;;;4950955;28;20791;-85
2022/12/20 11:03:57;;;;;;;6.43;3.35;;;8.50;91.40;;;;;;4950573;28;20204;-85
2022/12/20 11:06:27;;;;;;;4.57;2.90;;;8.50;91.40;;;;;;4951395;28;20201;-86
2022/12/20 11:08:54;;;;;;;6.22;3.33;;;8.50;91.40;;;;;;4951799;28;20394;-85
2022/12/20 11:11:23;;;;;;;6.63;3.63;;;8.50;91.10;;;;;;4946415;28;20215;-87
2022/12/20 11:13:51;;;;;;;6.35;3.20;;;8.50;91.20;;;;;;4948148;28;20638;-86
2022/12/20 11:16:35;;;;;;;5.18;3.13;;;8.50;91.10;;;;;;4950380;28;20299;-86
2022/12/20 11:19:40;;;;;;;4.65;2.95;;;8.60;90.90;;;;;;4953689;28;20208;-85
2022/12/20 11:22:22;;;;;;;5.30;3.00;;;8.70;90.40;;;;;;4948502;28;20220;-84
2022/12/20 11:25:02;;;;;;;6.05;3.10;;;8.60;90.90;;;;;;4952247;28;20215;-84
2022/12/20 11:27:36;;;;;;;5.28;2.78;;;8.90;90.40;;;;;;4951574;28;20296;-86
2022/12/20 11:30:09;;;;;;;6.00;2.85;;;8.80;90.40;;;;;;4944597;28;20213;-86
2022/12/20 11:33:11;;;;;;;7.75;3.58;;;8.90;90.40;;;;;;4946829;28;20657;-85
2022/12/20 11:35:51;;;;;;;6.85;3.25;;;8.90;90.40;;;;;;4947747;28;20197;-85
2022/12/20 11:40:47;;;;;;;5.53;3.40;;;9.00;90.50;;;;;;4947634;28;20586;-85
2022/12/20 11:48:29;;;;;;;5.28;2.97;;;9.20;90.30;;;;;;4948986;28;20189;-86
2022/12/20 11:51:13;;;;;;;6.13;2.75;;;9.00;90.50;;;;;;4949942;28;20208;-87
2022/12/20 12:33:06;;;;;;;6.80;4.88;;;8.60;92.30;;;;;;4944118;28;20282;-84
2022/12/20 12:35:52;;;;;;;6.68;4.45;;;8.60;92.20;;;;;;4941999;28;20205;-87
2022/12/20 12:38:38;;;;;;;6.93;4.70;;;8.60;92.70;;;;;;4949075;28;20294;-87
2022/12/20 12:41:48;;;;;;;8.85;4.78;;;8.60;93.10;;;;;;4950330;28;20224;-85
2022/12/20 12:44:34;;;;;;;6.93;4.28;;;8.50;93.20;;;;;;4873029;29;20644;-85
2022/12/20 12:47:11;;;;;;;5.32;4.25;;;8.60;93.30;;;;;;4874979;29;20204;-85
2022/12/20 12:49:49;;;;;;;8.75;4.50;;;8.60;93.00;;;;;;4875481;29;20530;-86
2022/12/20 12:52:42;;;;;;;6.50;4.50;;;8.60;92.70;;;;;;4875942;29;20212;-86
2022/12/20 12:55:35;;;;;;;6.90;5.07;;;8.60;92.80;;;;;;4873685;29;20212;-86
2022/12/20 12:58:14;;;;;;;6.55;4.65;;;8.50;93.00;;;;;;4871469;29;20212;-87
2022/12/20 13:00:49;;;;;;;7.82;4.90;;;8.50;93.10;;;;;;4873731;29;20211;-87
2022/12/20 13:03:17;;;;;;;5.43;4.30;;;8.40;93.70;;;;;;4875228;29;20213;-86
2022/12/20 13:05:46;;;;;;;8.93;4.85;;;8.40;93.70;;;;;;4873783;29;20240;-86
2022/12/20 13:08:17;;;;;;;5.80;4.40;;;8.30;94.10;;;;;;4874201;29;20562;-86
2022/12/20 13:11:00;;;;;;;8.63;4.47;;;8.30;94.00;;;;;;4875315;29;20633;-86
2022/12/20 13:13:28;;;;;;;10.63;5.03;;;8.30;94.00;;;;;;4874511;29;20219;-85
2022/12/20 13:16:31;;;;;;;6.80;4.78;;;8.20;94.10;;;;;;4874150;29;20223;-85
2022/12/20 13:19:10;;;;;;;8.50;4.38;;;8.20;94.30;;;;;;4883362;29;20211;-85
2022/12/20 13:21:45;;;;;;;11.13;5.25;;;8.20;94.50;;;;;;4938218;28;20236;-85
2022/12/20 13:24:55;;;;;;;8.70;5.00;;;8.10;94.50;;;;;;4954020;28;20229;-86
2022/12/20 13:27:24;;;;;;;9.20;5.22;;;8.00;94.70;;;;;;4951144;28;20217;-86
2022/12/20 13:29:58;;;;;;;8.82;5.15;;;7.90;95.70;;;;;;4952650;28;20205;-86
2022/12/20 13:32:56;;;;;;;7.90;4.88;;;7.80;95.70;;;;;;4950180;28;20213;-86
2022/12/20 13:35:32;;;;;;;7.47;4.50;;;7.70;95.70;;;;;;4951002;28;20213;-85
2022/12/20 13:38:03;;;;;;;8.73;5.03;;;7.60;95.70;;;;;;4951177;28;20205;-87
2022/12/20 13:40:35;;;;;;;7.70;4.95;;;7.50;95.60;;;;;;4954005;28;20240;-87
2022/12/20 13:43:08;;;;;;;23.27;12.43;;;7.50;95.60;;;;;;4949262;28;20251;-86
2022/12/20 13:45:38;;;;;;;10.70;7.40;;;7.40;96.00;;;;;;4951561;28;20646;-86
2022/12/20 13:48:07;;;;;;;13.52;8.05;;;7.30;96.00;;;;;;4954462;28;20216;-86
2022/12/20 13:50:39;;;;;;;10.18;6.00;;;7.40;96.20;;;;;;4951759;28;20209;-87
2022/12/20 13:53:17;;;;;;;6.72;5.15;;;7.40;96.20;;;;;;4949457;28;20239;-86
2022/12/20 13:55:44;;;;;;;8.48;4.88;;;7.40;96.00;;;;;;4956204;28;20209;-86
2022/12/20 13:58:16;;;;;;;7.75;5.30;;;7.30;96.10;;;;;;4951673;28;20420;-86
2022/12/20 14:00:43;;;;;;;8.73;5.18;;;7.30;96.20;;;;;;4950773;28;20213;-85
2022/12/20 14:03:23;;;;;;;10.40;5.70;;;7.20;96.30;;;;;;4953351;28;20202;-87
2022/12/20 14:05:56;;;;;;;10.55;5.57;;;7.10;96.40;;;;;;4952738;28;20201;-86
2022/12/20 14:08:27;;;;;;;8.65;5.57;;;7.10;96.60;;;;;;4949517;28;20209;-85
2022/12/20 14:10:54;;;;;;;6.90;5.50;;;7.10;96.80;;;;;;4948885;28;20288;-88